createdAt,value
2022-08-30T00:03:58.460Z,43.72
2022-08-30T00:09:00.690Z,43.86
2022-08-30T00:14:02.582Z,44.33
2022-08-30T00:19:04.909Z,44.64
2022-08-30T00:24:06.920Z,45.40
2022-08-30T00:29:08.943Z,44.37
2022-08-30T00:34:10.781Z,44.53
2022-08-30T00:39:12.842Z,45.09
2022-08-30T00:44:14.637Z,45.75
2022-08-30T00:49:16.772Z,45.50
2022-08-30T00:54:19.311Z,44.94
2022-08-30T00:59:22.093Z,45.05
2022-08-30T01:04:25.864Z,44.91
2022-08-30T01:09:27.762Z,44.99
2022-08-30T01:14:30.795Z,45.77
2022-08-30T01:19:53.735Z,45.42
2022-08-30T01:24:58.581Z,45.21
2022-08-30T01:30:01.490Z,45.22
2022-08-30T01:35:03.437Z,44.53
2022-08-30T01:40:07.414Z,45.36
2022-08-30T01:45:10.871Z,44.59
2022-08-30T01:50:13.067Z,44.89
2022-08-30T01:55:15.065Z,43.98
2022-08-30T02:00:18.223Z,43.52
2022-08-30T02:05:20.034Z,43.90
2022-08-30T02:10:21.911Z,43.57
2022-08-30T02:15:23.768Z,43.13
2022-08-30T02:20:25.712Z,42.88
2022-08-30T02:25:27.670Z,43.47
2022-08-30T02:30:29.624Z,43.51
2022-08-30T02:35:31.855Z,43.12
2022-08-30T02:40:34.670Z,43.85
2022-08-30T02:45:36.844Z,43.11
2022-08-30T02:50:43.099Z,42.95
2022-08-30T02:55:45.019Z,43.76
2022-08-30T03:00:47.395Z,43.25
2022-08-30T03:05:49.300Z,42.77
2022-08-30T03:10:51.248Z,43.05
2022-08-30T03:15:54.282Z,43.25
2022-08-30T03:20:56.190Z,42.50
2022-08-30T03:25:58.143Z,42.72
2022-08-30T03:31:02.619Z,43.21
2022-08-30T03:36:05.616Z,43.31
2022-08-30T03:41:07.519Z,43.09
2022-08-30T03:46:11.647Z,43.60
2022-08-30T03:51:13.430Z,43.93
2022-08-30T03:56:15.445Z,43.85
2022-08-30T04:01:17.509Z,44.22
2022-08-30T04:06:19.519Z,44.23
2022-08-30T04:11:21.647Z,45.37
2022-08-30T04:16:25.020Z,44.68
2022-08-30T04:21:27.171Z,44.86
2022-08-30T04:26:29.605Z,44.29
2022-08-30T04:31:31.722Z,44.52
2022-08-30T04:36:33.642Z,44.58
2022-08-30T04:41:36.623Z,44.72
2022-08-30T04:46:38.424Z,44.92
2022-08-30T04:51:46.680Z,44.84
2022-08-30T04:56:48.570Z,44.71
2022-08-30T05:01:50.618Z,45.28
2022-08-30T05:06:52.981Z,44.26
2022-08-30T05:11:55.125Z,44.97
2022-08-30T05:16:57.022Z,44.94
2022-08-30T05:21:58.875Z,45.44
2022-08-30T05:27:01.185Z,46.07
2022-08-30T05:32:03.345Z,47.53
2022-08-30T05:37:05.322Z,48.03
2022-08-30T05:42:07.276Z,48.27
2022-08-30T05:47:09.086Z,46.67
2022-08-30T05:52:12.881Z,47.33
2022-08-30T05:57:14.768Z,47.52
2022-08-30T06:02:17.044Z,46.96
2022-08-30T06:07:22.448Z,46.45
2022-08-30T06:12:24.790Z,46.12
2022-08-30T06:17:27.288Z,46.24
2022-08-30T06:22:29.176Z,46.55
2022-08-30T06:27:31.530Z,47.24
2022-08-30T06:32:33.330Z,46.78
2022-08-30T06:37:35.509Z,46.72
2022-08-30T06:42:37.407Z,46.86
2022-08-30T06:47:40.691Z,45.84
2022-08-30T06:52:44.664Z,45.79
2022-08-30T06:57:47.049Z,46.55
2022-08-30T07:02:48.905Z,47.81
2022-08-30T07:07:53.428Z,45.83
2022-08-30T07:12:55.288Z,45.98
2022-08-30T07:18:15.540Z,46.03
2022-08-30T07:23:17.584Z,46.22
2022-08-30T07:28:19.709Z,44.33
2022-08-30T07:33:21.640Z,43.92
2022-08-30T07:38:23.439Z,44.09
2022-08-30T07:43:25.435Z,43.56
2022-08-30T07:48:27.588Z,44.56
2022-08-30T07:53:29.491Z,43.74
2022-08-30T07:58:31.512Z,44.28
2022-08-30T08:03:33.894Z,42.79
2022-08-30T08:08:36.563Z,42.77
2022-08-30T08:13:50.668Z,43.00
2022-08-30T08:18:56.148Z,41.92
2022-08-30T08:23:58.020Z,42.92
2022-08-30T08:28:59.891Z,41.56
2022-08-30T08:34:05.873Z,41.24
2022-08-30T08:39:09.302Z,41.26
2022-08-30T08:44:15.624Z,40.70
2022-08-30T08:49:17.609Z,38.40
2022-08-30T08:54:32.837Z,36.32
2022-08-30T08:59:34.782Z,34.43
2022-08-30T09:04:38.546Z,33.20
2022-08-30T09:09:40.875Z,33.88
2022-08-30T09:14:54.504Z,30.79
2022-08-30T09:19:59.429Z,30.43
2022-08-30T09:25:03.267Z,30.76
2022-08-30T09:30:07.045Z,29.23
2022-08-30T09:35:39.828Z,27.93
2022-08-30T09:40:48.442Z,27.77
2022-08-30T09:46:02.953Z,26.28
2022-08-30T09:51:11.649Z,27.68
2022-08-30T09:56:36.587Z,27.81
2022-08-30T10:01:49.376Z,28.70
2022-08-30T10:07:14.015Z,28.41
2022-08-30T10:12:43.606Z,29.00
2022-08-30T10:17:51.745Z,27.61
2022-08-30T10:23:00.284Z,27.50
2022-08-30T10:28:14.848Z,26.70
2022-08-30T10:33:31.802Z,25.66
2022-08-30T10:38:36.990Z,26.27
2022-08-30T10:44:06.696Z,25.52
2022-08-30T10:49:15.470Z,25.59
2022-08-30T10:54:21.777Z,26.90
2022-08-30T10:59:24.203Z,25.86
2022-08-30T11:04:48.032Z,23.41
2022-08-30T11:10:09.446Z,22.41
2022-08-30T11:15:22.856Z,23.07
2022-08-30T11:20:30.886Z,22.98
2022-08-30T11:25:48.315Z,22.74
2022-08-30T11:31:18.359Z,21.45
2022-08-30T11:36:37.322Z,21.42
2022-08-30T11:41:47.844Z,21.91
2022-08-30T11:46:55.163Z,21.10
2022-08-30T11:52:26.481Z,20.38
2022-08-30T11:57:57.410Z,21.38
2022-08-30T12:03:06.071Z,21.62
2022-08-30T12:08:09.687Z,20.84
2022-08-30T12:13:34.351Z,21.19
2022-08-30T12:18:45.765Z,21.50
2022-08-30T12:23:50.854Z,22.11
2022-08-30T12:29:16.351Z,19.14
2022-08-30T12:34:31.990Z,19.70
2022-08-30T12:39:37.123Z,21.25
2022-08-30T12:44:39.775Z,19.84
2022-08-30T12:49:42.568Z,20.57
2022-08-30T12:54:45.419Z,19.32
2022-08-30T12:59:59.253Z,19.96
2022-08-30T13:05:27.770Z,19.62
2022-08-30T13:10:30.168Z,18.39
2022-08-30T13:15:35.834Z,18.12
2022-08-30T13:20:37.610Z,17.52
2022-08-30T13:25:40.159Z,17.70
2022-08-30T13:30:42.085Z,18.04
2022-08-30T13:35:44.389Z,17.17
2022-08-30T13:40:46.715Z,18.13
2022-08-30T13:45:49.318Z,18.52
2022-08-30T13:50:51.907Z,18.08
2022-08-30T13:55:53.788Z,18.03
2022-08-30T14:00:56.240Z,16.05
2022-08-30T14:06:29.450Z,16.73
2022-08-30T14:11:22.507Z,16.72
2022-08-30T14:16:27.926Z,16.92
2022-08-30T14:21:30.218Z,15.03
2022-08-30T14:26:47.463Z,14.62
2022-08-30T14:31:49.501Z,15.57
2022-08-30T14:36:51.434Z,14.82
2022-08-30T14:41:54.315Z,14.19
2022-08-30T14:46:57.445Z,15.17
2022-08-30T14:51:59.416Z,14.96
2022-08-30T14:57:01.277Z,14.38
2022-08-30T15:02:03.206Z,13.61
2022-08-30T15:07:05.328Z,14.53
2022-08-30T15:12:07.367Z,14.87
2022-08-30T15:17:09.671Z,14.39
2022-08-30T15:22:11.572Z,15.12
2022-08-30T15:27:13.430Z,15.76
2022-08-30T15:32:15.578Z,15.79
2022-08-30T15:37:22.516Z,16.18
2022-08-30T15:42:24.511Z,14.70
2022-08-30T15:47:26.403Z,14.88
2022-08-30T15:52:29.367Z,15.25
2022-08-30T15:57:32.530Z,15.18
2022-08-30T16:02:34.509Z,14.32
2022-08-30T16:07:40.531Z,14.68
2022-08-30T16:12:43.076Z,14.64
2022-08-30T16:17:45.013Z,13.88
2022-08-30T16:22:47.021Z,13.68
2022-08-30T16:27:48.969Z,14.66
2022-08-30T16:32:50.886Z,13.53
2022-08-30T16:37:52.787Z,12.51
2022-08-30T16:42:54.689Z,12.78
2022-08-30T16:47:56.638Z,13.75
2022-08-30T16:52:58.762Z,13.82
2022-08-30T16:58:01.149Z,13.63
2022-08-30T17:03:06.987Z,14.24
2022-08-30T17:08:11.426Z,14.49
2022-08-30T17:13:15.967Z,13.22
2022-08-30T17:18:19.007Z,13.28
2022-08-30T17:23:22.351Z,11.98
2022-08-30T17:28:25.642Z,12.97
2022-08-30T17:33:27.494Z,13.27
2022-08-30T17:38:30.911Z,13.39
2022-08-30T17:44:04.609Z,13.79
2022-08-30T17:49:10.449Z,14.29
2022-08-30T17:54:13.607Z,14.49
2022-08-30T17:59:17.801Z,14.84
2022-08-30T18:04:20.545Z,14.96
2022-08-30T18:09:23.113Z,16.52
2022-08-30T18:14:25.478Z,16.43
2022-08-30T18:20:12.951Z,16.43
2022-08-30T18:25:15.237Z,16.10
2022-08-30T18:30:19.133Z,16.60
2022-08-30T18:35:21.198Z,16.83
2022-08-30T18:40:23.237Z,17.07
2022-08-30T18:45:25.352Z,18.57
2022-08-30T18:50:30.362Z,17.30
2022-08-30T18:55:33.092Z,19.12
2022-08-30T19:00:35.208Z,24.56
2022-08-30T19:05:37.093Z,19.97
2022-08-30T19:10:39.078Z,20.21
2022-08-30T19:15:41.653Z,22.43
2022-08-30T19:20:43.533Z,23.41
2022-08-30T19:25:45.537Z,20.31
2022-08-30T19:31:06.758Z,21.84
2022-08-30T19:36:28.776Z,23.94
2022-08-30T19:41:40.501Z,20.43
2022-08-30T19:46:42.646Z,20.58
2022-08-30T19:51:46.831Z,21.47
2022-08-30T19:56:48.994Z,22.24
2022-08-30T20:01:51.650Z,21.23
2022-08-30T20:06:53.861Z,21.51
2022-08-30T20:11:57.435Z,21.44
2022-08-30T20:17:02.402Z,20.74
2022-08-30T20:22:08.087Z,20.99
2022-08-30T20:27:10.199Z,21.23
2022-08-30T20:32:12.243Z,21.04
2022-08-30T20:37:15.171Z,21.08
2022-08-30T20:42:18.136Z,22.27
2022-08-30T20:47:21.506Z,22.21
2022-08-30T20:52:23.486Z,22.01
2022-08-30T20:57:25.792Z,21.66
2022-08-30T21:02:29.805Z,22.00
2022-08-30T21:07:31.977Z,22.32
2022-08-30T21:12:33.966Z,21.26
2022-08-30T21:17:36.101Z,19.98
2022-08-30T21:22:42.370Z,19.67
2022-08-30T21:27:44.291Z,19.01
2022-08-30T21:32:46.186Z,19.21
2022-08-30T21:37:48.003Z,19.12
2022-08-30T21:42:49.938Z,19.80
2022-08-30T21:47:51.846Z,18.31
2022-08-30T21:52:54.044Z,20.18
2022-08-30T21:57:55.989Z,19.33
2022-08-30T22:02:57.805Z,19.25
2022-08-30T22:08:00.075Z,20.23
2022-08-30T22:13:02.048Z,19.35
2022-08-30T22:18:05.836Z,20.16
2022-08-30T22:23:08.020Z,19.03
2022-08-30T22:28:09.896Z,20.28
2022-08-30T22:33:11.782Z,19.96
2022-08-30T22:38:14.906Z,19.62
2022-08-30T22:43:17.752Z,20.13
2022-08-30T22:48:21.006Z,18.78
2022-08-30T22:53:22.954Z,19.21
2022-08-30T22:58:25.189Z,20.30
2022-08-30T23:03:27.604Z,19.03
2022-08-30T23:08:29.539Z,19.83
2022-08-30T23:13:31.514Z,19.38
2022-08-30T23:18:35.421Z,19.18
2022-08-30T23:23:56.119Z,19.49
2022-08-30T23:29:16.418Z,18.95
2022-08-30T23:34:36.722Z,19.94
2022-08-30T23:39:57.354Z,19.17
2022-08-30T23:45:20.672Z,19.90
2022-08-30T23:50:41.197Z,21.46
2022-08-30T23:56:01.542Z,20.40
